Time;durP1;ratioP1;P1;durP2;ratioP2;P2;SDS_P1;SDS_P2;PMS_P1;PMS_P2;Temp;Humidity;BMP_temperature;BMP_pressure;BME280_temperature;BME280_humidity;BME280_pressure;Samples;Min_cycle;Max_cycle;Signal;HPM_P1;HPM_P2
2023/06/21 00:01:39;;;;;;;23.20;20.80;;;;;;;19.00;99.99;99707.75;108158;1252;61985;-75
2023/06/21 00:04:06;;;;;;;22.50;20.20;;;;;;;19.01;100.00;99706.33;107814;1251;60514;-74
2023/06/21 00:06:36;;;;;;;22.60;20.50;;;;;;;19.02;100.00;99707.88;106506;1251;73834;-75
2023/06/21 00:09:03;;;;;;;22.00;19.90;;;;;;;19.05;100.00;99709.67;106356;1251;70374;-74
2023/06/21 00:11:30;;;;;;;23.40;21.10;;;;;;;19.06;100.00;99706.31;106483;1251;72807;-74
2023/06/21 00:13:58;;;;;;;22.20;20.10;;;;;;;19.02;100.00;99708.55;108315;1253;62805;-74
2023/06/21 00:16:25;;;;;;;23.60;21.40;;;;;;;19.01;100.00;99711.29;108668;1252;60435;-74
2023/06/21 00:18:52;;;;;;;23.60;21.40;;;;;;;18.99;100.00;99713.48;107490;1253;73761;-74
2023/06/21 00:21:19;;;;;;;22.40;20.30;;;;;;;19.01;100.00;99714.31;106425;1251;70341;-75
2023/06/21 00:23:46;;;;;;;24.00;21.70;;;;;;;19.01;100.00;99716.05;106424;1253;72499;-75
2023/06/21 00:26:12;;;;;;;24.20;21.90;;;;;;;18.97;100.00;99712.67;107621;1252;60640;-77
2023/06/21 00:28:39;;;;;;;24.10;21.80;;;;;;;18.93;100.00;99714.13;107939;1253;59552;-76
2023/06/21 00:31:10;;;;;;;22.20;20.00;;;;;;;18.90;100.00;99719.67;107465;1251;73986;-76
2023/06/21 00:33:37;;;;;;;24.50;22.20;;;;;;;18.88;100.00;99717.66;108710;1251;68918;-73
2023/06/21 00:36:04;;;;;;;23.00;21.00;;;;;;;18.89;100.00;99711.52;109066;1251;71405;-76
2023/06/21 00:38:34;;;;;;;23.10;20.80;;;;;;;18.93;100.00;99714.08;109014;1252;61965;-77
2023/06/21 00:41:05;;;;;;;24.40;22.00;;;;;;;18.95;100.00;99714.59;109017;1253;58816;-76
2023/06/21 00:43:32;;;;;;;23.30;21.00;;;;;;;18.98;100.00;99717.34;108681;1251;73798;-74
2023/06/21 00:46:00;;;;;;;23.70;21.60;;;;;;;19.03;100.00;99713.55;109017;1251;69305;-73
2023/06/21 00:48:28;;;;;;;23.60;21.30;;;;;;;19.06;100.00;99716.34;108977;1251;71459;-72
2023/06/21 00:50:58;;;;;;;23.00;20.70;;;;;;;19.12;100.00;99717.69;109076;1251;60716;-73
2023/06/21 00:53:27;;;;;;;24.60;22.30;;;;;;;19.16;100.00;99717.76;109083;1251;60263;-75
2023/06/21 00:55:57;;;;;;;24.50;22.30;;;;;;;19.17;100.00;99713.64;108901;1252;72413;-77
2023/06/21 00:58:24;;;;;;;23.40;21.30;;;;;;;19.21;100.00;99709.08;109067;1251;68833;-76
2023/06/21 01:00:51;;;;;;;24.40;22.20;;;;;;;19.32;100.00;99706.55;109078;1251;71430;-75
2023/06/21 01:03:19;;;;;;;23.90;21.70;;;;;;;19.44;100.00;99704.86;108934;1251;60703;-73
2023/06/21 01:06:18;;;;;;;25.10;21.60;;;;;;;19.54;100.00;99701.13;108090;1253;60498;-74
2023/06/21 01:09:04;;;;;;;26.90;24.30;;;;;;;19.54;100.00;99695.73;107274;1253;73662;-73
2023/06/21 01:11:31;;;;;;;26.20;23.00;;;;;;;19.45;100.00;99695.68;106439;1257;70667;-75
2023/06/21 01:14:33;;;;;;;24.80;22.60;;;;;;;19.37;100.00;99692.60;107447;1251;72641;-75
2023/06/21 01:17:00;;;;;;;24.60;22.20;;;;;;;19.35;100.00;99695.61;108660;1251;60816;-75
2023/06/21 01:19:39;;;;;;;25.30;23.00;;;;;;;19.43;100.00;99692.60;107690;1251;60640;-72
2023/06/21 01:22:18;;;;;;;24.60;22.30;;;;;;;19.55;100.00;99691.63;107768;1251;72688;-76
2023/06/21 01:25:16;;;;;;;26.80;24.40;;;;;;;19.55;100.00;99693.60;107533;1252;69373;-74
2023/06/21 01:28:46;;;;;;;26.00;23.50;;;;;;;19.45;99.68;99692.66;107749;1251;71885;-74
2023/06/21 01:31:16;;;;;;;28.10;25.00;;;;;;;19.33;99.77;99695.60;105510;1262;62089;-74
2023/06/21 01:33:43;;;;;;;27.90;25.10;;;;;;;19.26;99.95;99691.48;105463;1259;60595;-75
2023/06/21 01:36:09;;;;;;;26.10;23.60;;;;;;;19.24;100.00;99692.73;105400;1251;72366;-75
2023/06/21 01:38:36;;;;;;;27.20;24.40;;;;;;;19.24;100.00;99693.09;105855;1251;70386;-74
2023/06/21 01:41:03;;;;;;;27.10;24.50;;;;;;;19.20;100.00;99693.84;106026;1251;72493;-73
2023/06/21 01:43:31;;;;;;;27.90;25.20;;;;;;;19.19;100.00;99699.29;105869;1253;61919;-76
2023/06/21 01:45:58;;;;;;;26.70;24.20;;;;;;;19.14;100.00;99698.15;105891;1251;62616;-73
2023/06/21 01:48:25;;;;;;;27.20;24.80;;;;;;;19.12;100.00;99702.15;105911;1260;74351;-75
2023/06/21 01:50:52;;;;;;;27.80;25.20;;;;;;;19.11;100.00;99703.28;106758;1251;70288;-76
2023/06/21 01:53:33;;;;;;;27.10;24.60;;;;;;;19.09;100.00;99707.73;106992;1257;71312;-75
2023/06/21 01:56:01;;;;;;;28.70;25.70;;;;;;;19.05;100.00;99711.88;106580;1254;62127;-76
2023/06/21 01:58:28;;;;;;;27.10;24.60;;;;;;;19.03;100.00;99718.23;106381;1253;60529;-77
2023/06/21 02:00:56;;;;;;;27.60;25.00;;;;;;;19.04;100.00;99723.23;106404;1250;74309;-73
2023/06/21 02:03:23;;;;;;;28.60;25.80;;;;;;;19.11;100.00;99731.49;106356;1255;70135;-74
2023/06/21 02:05:51;;;;;;;29.70;26.50;;;;;;;19.22;100.00;99734.80;106998;1253;72672;-74
2023/06/21 02:08:19;;;;;;;28.00;25.40;;;;;;;19.30;100.00;99739.35;108127;1253;61866;-72
2023/06/21 02:10:47;;;;;;;28.60;25.80;;;;;;;19.33;100.00;99743.49;107212;1251;60431;-75
2023/06/21 02:13:14;;;;;;;28.80;26.10;;;;;;;19.38;100.00;99744.23;105983;1253;74009;-75
2023/06/21 02:15:43;;;;;;;29.40;26.50;;;;;;;19.42;100.00;99751.89;105977;1253;70181;-74
2023/06/21 02:18:10;;;;;;;30.40;27.60;;;;;;;19.47;100.00;99754.27;106030;1253;72632;-74
2023/06/21 02:20:39;;;;;;;29.20;26.60;;;;;;;19.48;100.00;99752.80;106101;1251;61811;-75
2023/06/21 02:23:06;;;;;;;29.70;26.80;;;;;;;19.49;100.00;99753.04;106135;1251;60655;-74
2023/06/21 02:25:35;;;;;;;30.50;27.60;;;;;;;19.51;100.00;99753.39;105831;1258;74178;-74
2023/06/21 02:28:02;;;;;;;30.10;27.30;;;;;;;19.53;99.87;99749.77;106030;1251;70089;-74
2023/06/21 02:30:29;;;;;;;30.30;27.30;;;;;;;19.51;99.61;99749.49;106100;1253;72492;-76
2023/06/21 02:32:57;;;;;;;30.40;27.50;;;;;;;19.52;99.90;99749.81;105965;1251;60792;-76
2023/06/21 02:35:24;;;;;;;28.30;25.60;;;;;;;19.57;99.67;99754.56;105977;1256;60485;-73
2023/06/21 02:37:50;;;;;;;28.50;25.80;;;;;;;19.58;99.18;99753.80;106025;1256;74107;-74
2023/06/21 02:40:18;;;;;;;30.00;27.10;;;;;;;19.58;99.31;99753.95;105898;1252;70231;-73
2023/06/21 02:42:44;;;;;;;30.40;27.60;;;;;;;19.60;99.23;99752.24;106082;1255;71404;-76
2023/06/21 02:45:11;;;;;;;30.70;27.70;;;;;;;19.60;98.72;99760.00;105742;1256;61847;-74
2023/06/21 02:47:38;;;;;;;30.60;27.80;;;;;;;19.59;98.47;99763.41;106014;1253;60489;-75
2023/06/21 02:50:05;;;;;;;30.90;28.00;;;;;;;19.60;98.71;99769.58;105990;1251;72309;-75
2023/06/21 02:52:34;;;;;;;31.50;28.50;;;;;;;19.62;98.76;99767.80;105783;1253;70304;-77
2023/06/21 02:55:03;;;;;;;30.60;27.80;;;;;;;19.64;98.21;99766.45;105855;1253;72868;-76
2023/06/21 02:57:31;;;;;;;29.30;26.60;;;;;;;19.63;98.40;99772.11;105997;1251;61930;-75
2023/06/21 02:59:59;;;;;;;29.30;26.70;;;;;;;19.64;98.32;99770.14;106080;1251;61583;-77
2023/06/21 03:02:33;;;;;;;31.60;28.50;;;;;;;19.65;98.26;99768.92;106638;1253;73756;-78
2023/06/21 03:05:00;;;;;;;29.30;26.60;;;;;;;19.63;97.98;99771.57;108682;1253;70099;-78
2023/06/21 03:07:27;;;;;;;31.40;28.20;;;;;;;19.64;97.95;99774.66;105925;1253;71430;-77
2023/06/21 03:09:55;;;;;;;29.50;26.70;;;;;;;19.62;98.26;99777.67;105933;1253;61769;-76
2023/06/21 03:12:22;;;;;;;30.00;27.10;;;;;;;19.64;98.15;99779.25;105959;1258;60374;-74
2023/06/21 03:14:49;;;;;;;31.40;28.20;;;;;;;19.64;98.32;99781.21;105940;1252;75140;-75
2023/06/21 03:17:17;;;;;;;29.90;26.80;;;;;;;19.62;98.58;99780.49;105938;1253;70604;-74
2023/06/21 03:19:44;;;;;;;30.40;27.70;;;;;;;19.66;99.10;99781.77;105873;1257;72744;-73
2023/06/21 03:22:11;;;;;;;29.70;26.90;;;;;;;19.72;98.72;99785.09;105919;1253;61990;-76
2023/06/21 03:24:40;;;;;;;29.30;26.70;;;;;;;19.73;98.68;99785.09;105993;1251;60416;-74
2023/06/21 03:27:07;;;;;;;32.10;28.90;;;;;;;19.69;98.37;99785.38;106038;1251;72292;-75
2023/06/21 03:29:34;;;;;;;30.50;27.60;;;;;;;19.64;98.56;99785.65;106183;1251;68986;-77
2023/06/21 03:32:01;;;;;;;32.80;29.50;;;;;;;19.66;99.00;99785.01;106319;1253;72565;-76
2023/06/21 03:34:29;;;;;;;31.30;28.40;;;;;;;19.69;98.80;99785.71;106052;1253;60546;-75
2023/06/21 03:36:55;;;;;;;30.70;27.50;;;;;;;19.63;98.74;99786.33;106097;1253;60309;-76
2023/06/21 03:39:24;;;;;;;29.30;26.50;;;;;;;19.58;98.89;99780.14;107383;1253;74004;-74
2023/06/21 03:41:51;;;;;;;30.60;27.60;;;;;;;19.60;99.05;99783.29;107326;1252;69034;-77
2023/06/21 03:44:18;;;;;;;31.20;28.30;;;;;;;19.61;99.14;99780.41;106388;1256;71369;-78
2023/06/21 03:46:45;;;;;;;32.90;29.60;;;;;;;19.61;99.41;99785.73;106043;1253;60474;-77
2023/06/21 03:49:12;;;;;;;31.60;28.60;;;;;;;19.58;99.20;99787.75;105667;1253;60500;-76
2023/06/21 03:51:39;;;;;;;31.30;28.30;;;;;;;19.65;100.00;99788.09;106024;1251;76776;-80
2023/06/21 03:54:06;;;;;;;31.80;28.80;;;;;;;19.70;99.75;99792.92;105997;1259;69123;-75
2023/06/21 03:56:32;;;;;;;34.50;28.30;;;;;;;19.68;99.62;99792.39;105765;1253;72745;-78
2023/06/21 03:59:00;;;;;;;30.90;28.10;;;;;;;19.72;99.92;99794.81;106426;1253;61858;-77
2023/06/21 04:01:26;;;;;;;31.60;28.60;;;;;;;19.81;99.73;99794.17;108560;1253;58993;-77
2023/06/21 04:03:56;;;;;;;32.80;29.60;;;;;;;19.84;99.75;99798.04;108379;1258;72578;-76
2023/06/21 04:06:23;;;;;;;31.60;28.50;;;;;;;19.87;99.08;99802.22;106504;1253;68910;-75
2023/06/21 04:08:50;;;;;;;31.70;28.70;;;;;;;19.91;98.75;99804.70;106327;1258;71428;-75
2023/06/21 04:11:17;;;;;;;32.10;29.30;;;;;;;19.97;99.42;99808.10;105847;1253;60615;-76
2023/06/21 04:13:45;;;;;;;30.40;27.40;;;;;;;20.02;99.73;99812.17;105771;1253;60433;-80
2023/06/21 04:16:11;;;;;;;32.60;29.70;;;;;;;20.13;99.61;99817.23;106006;1253;72243;-75
2023/06/21 04:18:38;;;;;;;35.10;31.60;;;;;;;20.25;98.89;99818.48;105744;1253;69159;-77
2023/06/21 04:21:05;;;;;;;34.50;31.00;;;;;;;20.29;98.17;99823.35;105949;1253;72532;-80
2023/06/21 04:23:32;;;;;;;34.60;31.20;;;;;;;20.25;97.93;99824.43;106105;1253;60605;-78
2023/06/21 04:25:59;;;;;;;36.90;33.30;;;;;;;20.31;98.40;99827.33;105803;1253;61123;-78
2023/06/21 04:28:26;;;;;;;34.90;31.60;;;;;;;20.37;97.58;99825.46;106077;1253;72536;-78
2023/06/21 04:30:58;;;;;;;36.10;32.20;;;;;;;20.37;97.33;99831.33;106062;1251;70323;-79
2023/06/21 04:33:25;;;;;;;35.00;31.80;;;;;;;20.40;96.91;99836.91;106064;1258;71475;-77
2023/06/21 04:35:51;;;;;;;36.80;33.20;;;;;;;20.42;96.92;99841.50;106350;1253;60293;-76
2023/06/21 04:38:22;;;;;;;35.70;32.00;;;;;;;20.42;97.00;99846.59;106216;1253;60534;-77
2023/06/21 04:40:52;;;;;;;34.20;31.00;;;;;;;20.49;97.43;99844.13;106149;1258;74094;-78
2023/06/21 04:43:21;;;;;;;41.60;35.10;;;;;;;20.54;96.98;99846.00;105871;1258;69332;-78
2023/06/21 04:45:48;;;;;;;41.00;36.60;;;;;;;20.55;96.96;99849.39;105925;1251;72651;-78
2023/06/21 04:48:15;;;;;;;38.50;34.90;;;;;;;20.62;96.98;99854.66;106164;1252;61712;-75
2023/06/21 04:50:45;;;;;;;44.30;39.90;;;;;;;20.71;97.28;99856.88;105768;1252;60442;-75
2023/06/21 04:53:12;;;;;;;38.60;34.80;;;;;;;20.74;96.92;99854.15;105688;1253;73932;-77
2023/06/21 04:55:44;;;;;;;38.40;34.80;;;;;;;20.82;96.90;99851.25;106382;1253;69986;-79
2023/06/21 04:58:12;;;;;;;38.10;34.40;;;;;;;20.90;96.62;99847.95;108858;1251;71488;-77
2023/06/21 05:00:39;;;;;;;39.30;35.60;;;;;;;20.93;95.89;99844.99;108841;1251;59007;-76
2023/06/21 05:03:06;;;;;;;36.60;32.80;;;;;;;20.92;95.66;99845.50;106355;1254;60337;-77
2023/06/21 05:05:33;;;;;;;36.40;32.90;;;;;;;20.96;95.26;99841.94;106387;1253;73713;-76
2023/06/21 05:08:01;;;;;;;36.60;33.30;;;;;;;20.95;94.86;99840.84;106224;1253;70276;-75
2023/06/21 05:10:28;;;;;;;36.20;32.90;;;;;;;20.92;95.00;99841.94;106123;1250;72707;-79
2023/06/21 05:12:58;;;;;;;37.30;33.70;;;;;;;20.99;95.40;99847.25;106055;1253;61970;-75
2023/06/21 05:15:26;;;;;;;38.50;34.80;;;;;;;21.05;95.00;99847.86;105998;1251;60505;-73
2023/06/21 05:17:52;;;;;;;38.00;34.30;;;;;;;21.08;95.90;99846.80;106015;1253;73972;-78
2023/06/21 05:20:22;;;;;;;39.10;35.20;;;;;;;21.20;95.98;99847.02;106008;1254;70259;-78
2023/06/21 05:22:51;;;;;;;38.30;34.40;;;;;;;21.27;95.06;99853.67;106095;1254;71779;-78
2023/06/21 05:25:18;;;;;;;38.50;34.80;;;;;;;21.28;94.70;99856.86;106017;1255;61898;-78
2023/06/21 05:27:45;;;;;;;39.70;36.10;;;;;;;21.34;94.73;99852.67;106253;1255;60342;-79
2023/06/21 05:30:12;;;;;;;40.50;36.50;;;;;;;21.39;94.54;99859.45;105921;1253;73999;-74
2023/06/21 05:32:39;;;;;;;39.30;35.20;;;;;;;21.43;94.45;99862.45;105822;1258;70672;-72
2023/06/21 05:35:06;;;;;;;37.30;33.80;;;;;;;21.52;93.97;99861.55;105968;1255;72556;-73
2023/06/21 05:37:33;;;;;;;42.90;38.60;;;;;;;21.59;93.58;99867.33;105966;1253;60521;-73
2023/06/21 05:40:02;;;;;;;40.10;36.50;;;;;;;21.63;93.66;99865.13;105816;1255;62448;-74
2023/06/21 05:42:29;;;;;;;38.40;34.80;;;;;;;21.70;93.65;99864.52;106148;1254;74532;-72
2023/06/21 05:44:56;;;;;;;40.70;36.60;;;;;;;21.86;92.95;99860.56;105980;1253;70665;-70
2023/06/21 05:47:23;;;;;;;40.10;36.40;;;;;;;21.99;92.50;99855.08;107005;1253;70133;-71
2023/06/21 05:49:50;;;;;;;38.30;34.90;;;;;;;22.13;93.01;99857.58;107246;1253;60727;-74
2023/06/21 05:52:17;;;;;;;39.30;35.40;;;;;;;22.29;92.01;99857.95;106809;1254;60607;-74
2023/06/21 05:54:44;;;;;;;39.90;36.10;;;;;;;22.41;91.39;99859.70;106191;1251;73757;-71
2023/06/21 05:57:11;;;;;;;39.20;35.40;;;;;;;22.47;90.78;99860.13;106382;1253;70129;-71
2023/06/21 05:59:38;;;;;;;38.70;35.10;;;;;;;22.49;90.76;99862.05;105817;1253;73459;-72
2023/06/21 06:02:05;;;;;;;39.80;36.00;;;;;;;22.50;90.55;99864.46;106005;1256;61889;-73
2023/06/21 06:04:32;;;;;;;38.80;35.20;;;;;;;22.47;90.21;99863.26;106025;1259;60304;-74
2023/06/21 06:06:59;;;;;;;38.70;34.90;;;;;;;22.40;89.51;99866.70;106097;1256;73423;-71
2023/06/21 06:09:25;;;;;;;39.00;35.40;;;;;;;22.40;89.02;99867.09;106015;1254;69433;-72
2023/06/21 06:11:52;;;;;;;40.70;36.90;;;;;;;22.39;88.82;99869.18;105981;1253;72601;-74
2023/06/21 06:14:20;;;;;;;39.80;36.00;;;;;;;22.34;88.81;99868.72;105890;1253;61702;-71
2023/06/21 06:16:47;;;;;;;40.60;37.00;;;;;;;22.34;89.07;99869.09;106010;1253;60460;-73
2023/06/21 06:19:13;;;;;;;38.70;35.20;;;;;;;22.35;89.21;99868.90;106056;1252;72558;-73
2023/06/21 06:21:41;;;;;;;38.50;34.80;;;;;;;22.35;89.63;99865.40;106042;1255;70162;-73
2023/06/21 06:24:07;;;;;;;37.90;34.50;;;;;;;22.46;89.58;99865.58;106188;1255;72771;-73
2023/06/21 06:26:35;;;;;;;40.20;36.00;;;;;;;22.55;89.63;99865.52;106138;1252;60523;-74
2023/06/21 06:29:01;;;;;;;37.20;33.60;;;;;;;22.62;89.37;99866.63;105993;1254;60540;-71
2023/06/21 06:31:29;;;;;;;36.70;33.20;;;;;;;22.78;89.06;99868.12;105870;1256;73715;-72
2023/06/21 06:33:56;;;;;;;37.10;33.60;;;;;;;22.93;89.18;99867.95;105924;1259;69657;-71
2023/06/21 06:36:22;;;;;;;35.00;31.60;;;;;;;23.07;88.96;99865.09;106023;1254;71272;-73
2023/06/21 06:38:50;;;;;;;35.20;31.90;;;;;;;23.27;88.00;99870.00;105955;1258;61982;-74
2023/06/21 06:41:17;;;;;;;32.80;29.80;;;;;;;23.47;87.22;99866.80;105688;1257;60468;-74
2023/06/21 06:43:45;;;;;;;32.80;29.80;;;;;;;23.57;83.68;99868.73;106179;1256;73889;-74
2023/06/21 06:46:11;;;;;;;32.90;30.00;;;;;;;23.60;83.08;99868.56;105934;1253;70402;-74
2023/06/21 06:48:38;;;;;;;35.40;32.20;;;;;;;23.61;83.46;99869.17;106017;1253;72558;-73
2023/06/21 06:51:05;;;;;;;37.80;34.10;;;;;;;23.57;82.82;99872.05;106432;1252;60408;-72
2023/06/21 06:53:32;;;;;;;34.20;31.10;;;;;;;23.53;83.01;99874.16;106370;1253;60372;-75
2023/06/21 06:55:59;;;;;;;34.60;31.30;;;;;;;23.60;83.24;99876.70;106291;1250;72854;-76
2023/06/21 06:58:30;;;;;;;33.70;30.30;;;;;;;23.65;82.81;99875.46;106052;1256;68960;-74
2023/06/21 07:00:57;;;;;;;31.60;28.70;;;;;;;23.63;82.90;99880.86;105500;1259;71853;-74
2023/06/21 07:03:23;;;;;;;30.50;27.70;;;;;;;23.64;82.35;99883.05;106061;1252;61915;-75
2023/06/21 07:05:51;;;;;;;29.10;26.40;;;;;;;23.74;82.49;99882.95;105768;1256;60444;-75
2023/06/21 07:08:18;;;;;;;29.50;26.60;;;;;;;23.80;81.12;99881.60;105951;1251;74174;-77
2023/06/21 07:10:45;;;;;;;30.50;27.70;;;;;;;23.82;79.67;99881.25;105984;1257;70527;-73
2023/06/21 07:13:12;;;;;;;30.50;27.60;;;;;;;23.87;78.86;99884.11;106035;1257;72548;-74
2023/06/21 07:15:40;;;;;;;29.90;27.20;;;;;;;23.83;78.59;99886.31;106246;1256;60837;-72
2023/06/21 07:18:07;;;;;;;27.20;24.70;;;;;;;23.80;79.47;99887.94;105628;1253;60515;-75
2023/06/21 07:20:34;;;;;;;25.30;23.10;;;;;;;23.89;79.47;99883.28;106040;1256;73745;-73
2023/06/21 08:47:14;;;;;;;17.10;15.70;;;;;;;25.97;64.45;99885.67;105411;1280;613147;-77
2023/06/21 08:49:42;;;;;;;17.30;15.70;;;;;;;26.36;63.29;99887.81;105470;1280;147360;-76
2023/06/21 08:52:11;;;;;;;16.80;14.80;;;;;;;26.45;63.28;99886.29;106009;1269;59217;-78
2023/06/21 08:54:40;;;;;;;17.20;15.60;;;;;;;26.52;61.73;99885.92;105181;1272;72217;-73
2023/06/21 08:57:11;;;;;;;16.00;14.40;;;;;;;26.57;60.72;99883.52;105251;1267;70075;-72
2023/06/21 08:59:47;;;;;;;14.30;13.20;;;;;;;26.60;58.97;99881.49;104720;1271;72932;-70
2023/06/21 09:02:39;;;;;;;15.10;13.70;;;;;;;26.63;59.06;99882.05;104545;1270;60164;-71
2023/06/21 09:05:09;;;;;;;13.80;12.40;;;;;;;26.68;58.63;99878.73;105245;1260;60009;-72
2023/06/21 09:07:37;;;;;;;12.60;11.40;;;;;;;26.78;57.44;99878.19;105648;1261;72687;-71
2023/06/21 09:10:05;;;;;;;13.80;12.50;;;;;;;26.90;56.06;99876.33;105614;1266;69393;-72
2023/06/21 09:12:34;;;;;;;12.80;11.60;;;;;;;27.03;55.68;99873.98;105757;1261;71471;-72
2023/06/21 09:15:02;;;;;;;12.00;10.90;;;;;;;27.16;55.52;99875.92;105106;1263;60114;-72
2023/06/21 09:17:29;;;;;;;11.80;10.70;;;;;;;27.28;55.40;99876.05;105352;1257;60662;-77
2023/06/21 09:19:57;;;;;;;13.20;12.00;;;;;;;27.42;55.34;99877.70;104966;1273;71861;-78
2023/06/21 09:22:24;;;;;;;11.90;10.80;;;;;;;27.60;55.49;99874.59;105319;1262;70280;-79
2023/06/21 09:24:52;;;;;;;10.80;10.00;;;;;;;27.91;54.71;99871.42;105242;1261;71833;-75
2023/06/21 09:27:19;;;;;;;12.50;11.30;;;;;;;28.27;52.79;99872.84;105165;1266;59738;-76
2023/06/21 09:29:47;;;;;;;11.60;10.70;;;;;;;28.66;51.91;99865.48;105087;1262;60046;-76
2023/06/21 09:32:14;;;;;;;12.30;11.20;;;;;;;29.07;51.20;99870.19;105116;1264;72965;-78
2023/06/21 09:34:42;;;;;;;13.40;11.60;;;;;;;29.47;49.92;99872.68;105164;1263;69384;-76
2023/06/21 09:37:09;;;;;;;11.50;10.60;;;;;;;29.85;49.85;99878.11;105004;1263;71055;-76
2023/06/21 09:39:37;;;;;;;11.60;10.50;;;;;;;30.28;48.90;99876.41;105346;1258;60147;-76
2023/06/21 09:42:04;;;;;;;11.80;10.80;;;;;;;30.72;47.07;99871.81;105172;1263;60151;-76
2023/06/21 09:44:34;;;;;;;10.50;9.60;;;;;;;31.12;45.55;99870.81;105483;1257;73059;-76
2023/06/21 09:47:02;;;;;;;10.80;9.90;;;;;;;31.44;44.84;99867.42;105298;1262;69367;-76
2023/06/21 09:49:30;;;;;;;10.70;9.30;;;;;;;31.79;44.45;99861.80;105266;1263;74911;-77
2023/06/21 09:51:57;;;;;;;10.00;9.20;;;;;;;32.20;43.64;99861.71;106973;1262;61139;-75
2023/06/21 09:54:25;;;;;;;10.40;9.50;;;;;;;32.60;43.44;99862.77;106333;1257;62449;-77
2023/06/21 09:56:52;;;;;;;9.60;8.70;;;;;;;32.97;43.54;99860.41;105503;1258;73050;-78
2023/06/21 09:59:20;;;;;;;10.00;9.20;;;;;;;33.39;42.07;99857.50;105346;1261;70177;-77
2023/06/21 10:01:49;;;;;;;9.10;8.40;;;;;;;33.75;41.90;99857.98;105265;1263;71112;-76
2023/06/21 10:04:17;;;;;;;9.10;8.30;;;;;;;34.05;40.51;99856.88;105377;1263;59655;-76
2023/06/21 10:06:54;;;;;;;9.60;8.70;;;;;;;34.35;40.74;99856.06;105296;1262;62287;-77
2023/06/21 10:09:21;;;;;;;11.40;10.50;;;;;;;34.66;40.10;99853.10;105265;1263;66055;-76
2023/06/21 10:11:49;;;;;;;9.70;8.80;;;;;;;34.92;39.07;99847.31;105322;1262;61486;-77
2023/06/21 10:14:26;;;;;;;9.00;8.30;;;;;;;35.23;40.04;99847.04;105414;1258;62998;-77
2023/06/21 10:16:53;;;;;;;10.10;9.10;;;;;;;35.61;38.57;99848.46;105529;1262;59734;-79
2023/06/21 10:19:22;;;;;;;12.60;9.40;;;;;;;35.89;37.50;99850.41;105651;1261;59666;-76
2023/06/21 10:22:11;;;;;;;10.60;9.80;;;;;;;36.13;36.80;99848.10;105273;1261;62986;-76
2023/06/21 10:24:49;;;;;;;11.50;10.30;;;;;;;36.37;36.76;99847.98;105425;1263;61717;-76
2023/06/21 10:27:18;;;;;;;10.00;9.20;;;;;;;36.61;36.81;99847.97;105399;1258;63786;-77
2023/06/21 10:29:53;;;;;;;10.10;9.30;;;;;;;36.77;36.05;99847.14;105546;1258;59733;-79
2023/06/21 10:32:20;;;;;;;10.00;9.20;;;;;;;36.91;36.38;99845.09;105570;1263;60980;-77
2023/06/21 10:34:52;;;;;;;9.90;9.10;;;;;;;37.12;35.79;99839.16;105365;1257;62827;-78
2023/06/21 10:37:55;;;;;;;10.80;10.00;;;;;;;37.42;33.94;99839.84;105111;1260;60235;-76
2023/06/21 10:40:22;;;;;;;10.70;9.90;;;;;;;37.66;33.66;99832.78;105405;1263;62565;-76
2023/06/21 10:42:50;;;;;;;9.60;8.80;;;;;;;37.75;33.72;99837.42;105243;1263;59817;-77
2023/06/21 10:45:17;;;;;;;9.90;8.70;;;;;;;37.82;33.26;99834.01;105179;1271;59570;-76
2023/06/21 10:47:45;;;;;;;9.30;8.50;;;;;;;37.95;32.71;99832.55;105238;1264;66359;-76
2023/06/21 10:50:13;;;;;;;11.40;10.30;;;;;;;38.07;32.73;99828.17;105474;1254;61461;-77
2023/06/21 10:52:42;;;;;;;10.30;9.50;;;;;;;38.33;32.77;99825.27;106165;1260;63855;-78
2023/06/21 10:55:10;;;;;;;10.30;9.50;;;;;;;38.65;32.57;99824.75;105725;1262;59631;-78
2023/06/21 10:57:37;;;;;;;10.90;9.90;;;;;;;38.96;32.14;99821.07;105937;1254;59604;-76
2023/06/21 11:00:07;;;;;;;9.90;9.20;;;;;;;39.13;31.91;99821.33;106718;1257;62890;-76
2023/06/21 11:02:34;;;;;;;11.40;10.30;;;;;;;39.28;31.64;99819.95;106770;1260;63648;-77
2023/06/21 11:05:35;;;;;;;10.90;10.00;;;;;;;39.42;30.93;99814.83;105891;1260;62462;-76
2023/06/21 11:08:06;;;;;;;10.00;9.20;;;;;;;39.54;30.12;99813.20;106353;1258;59739;-77
2023/06/21 11:10:42;;;;;;;10.60;9.80;;;;;;;39.66;29.99;99814.91;106193;1260;59656;-77
2023/06/21 11:13:10;;;;;;;11.00;10.10;;;;;;;39.90;30.02;99816.14;105982;1258;63074;-76
2023/06/21 11:15:42;;;;;;;10.30;9.20;;;;;;;40.14;29.83;99814.83;105850;1254;61457;-78
2023/06/21 11:18:10;;;;;;;8.80;8.00;;;;;;;40.29;29.09;99818.56;106067;1260;62493;-75
2023/06/21 11:21:04;;;;;;;8.80;8.00;;;;;;;40.43;28.06;99818.67;106063;1259;59743;-73
2023/06/21 11:23:31;;;;;;;8.60;7.90;;;;;;;40.72;27.65;99824.00;105796;1260;62186;-76
2023/06/21 11:26:02;;;;;;;9.80;9.00;;;;;;;41.04;27.76;99821.31;105359;1254;63915;-75
2023/06/21 11:28:33;;;;;;;9.50;8.80;;;;;;;41.35;27.29;99817.77;105875;1260;60100;-73
2023/06/21 11:31:00;;;;;;;10.00;9.20;;;;;;;41.48;27.44;99818.61;105316;1260;62734;-74
2023/06/21 11:33:29;;;;;;;10.20;9.40;;;;;;;41.58;27.58;99814.69;105464;1257;59736;-75
2023/06/21 11:36:03;;;;;;;9.30;8.50;;;;;;;41.68;27.13;99813.73;105894;1254;59771;-76
2023/06/21 11:38:31;;;;;;;8.50;7.80;;;;;;;41.76;26.74;99810.74;105563;1260;66582;-76
2023/06/21 11:40:59;;;;;;;8.30;7.70;;;;;;;41.81;26.76;99812.80;105946;1255;60642;-77
2023/06/21 11:43:27;;;;;;;9.00;8.40;;;;;;;41.98;26.75;99808.73;105491;1257;63735;-74
2023/06/21 11:46:00;;;;;;;10.00;9.30;;;;;;;42.05;26.67;99816.48;105382;1260;59752;-76
2023/06/21 11:48:28;;;;;;;10.00;9.30;;;;;;;41.88;27.13;99824.52;105815;1255;59818;-77
2023/06/21 11:51:16;;;;;;;11.30;9.00;;;;;;;41.45;27.59;99820.56;105521;1262;75270;-76
2023/06/21 11:53:43;;;;;;;10.70;9.80;;;;;;;41.03;27.79;99817.80;105937;1258;61536;-75
2023/06/21 11:56:16;;;;;;;9.60;8.90;;;;;;;40.80;27.90;99821.21;105693;1254;65754;-76
2023/06/21 11:58:43;;;;;;;10.00;9.20;;;;;;;40.89;28.18;99825.92;106971;1259;59698;-77
2023/06/21 12:01:12;;;;;;;9.90;9.10;;;;;;;41.27;27.73;99820.67;106562;1254;59238;-76
2023/06/21 12:03:39;;;;;;;9.90;9.10;;;;;;;41.58;27.65;99815.10;106011;1260;64128;-75
2023/06/21 12:06:07;;;;;;;10.10;9.20;;;;;;;41.86;27.67;99809.27;105567;1259;61529;-77
2023/06/21 12:08:35;;;;;;;10.50;9.50;;;;;;;42.14;27.50;99806.92;106859;1260;63770;-77
2023/06/21 12:11:11;;;;;;;10.70;9.90;;;;;;;42.44;27.39;99805.05;107263;1254;60713;-76
2023/06/21 12:13:39;;;;;;;9.90;9.00;;;;;;;42.69;27.02;99803.88;107748;1254;59654;-77
2023/06/21 12:16:07;;;;;;;9.70;8.90;;;;;;;42.71;26.56;99803.73;105634;1258;64242;-78
2023/06/21 12:18:36;;;;;;;10.30;9.40;;;;;;;42.67;26.65;99801.55;105908;1260;60125;-77
2023/06/21 12:21:05;;;;;;;10.40;9.50;;;;;;;42.81;26.59;99803.59;105742;1257;64092;-76
2023/06/21 12:23:32;;;;;;;9.90;9.20;;;;;;;42.96;26.58;99798.79;105920;1254;59703;-76
2023/06/21 12:26:04;;;;;;;9.70;9.00;;;;;;;43.14;26.42;99794.30;105893;1255;59641;-77
2023/06/21 12:28:32;;;;;;;10.20;9.30;;;;;;;43.47;25.97;99792.55;105552;1254;64976;-78
2023/06/21 12:31:07;;;;;;;9.40;8.50;;;;;;;43.66;25.74;99791.46;105652;1255;61484;-77
2023/06/21 12:33:36;;;;;;;9.80;8.40;;;;;;;43.84;25.25;99785.72;105472;1254;63010;-77
2023/06/21 12:36:17;;;;;;;9.10;8.40;;;;;;;43.90;25.29;99785.36;105668;1264;59704;-78
2023/06/21 12:38:58;;;;;;;9.70;9.00;;;;;;;43.99;25.33;99784.50;106360;1254;62345;-73
2023/06/21 12:41:30;;;;;;;9.70;9.00;;;;;;;44.16;25.35;99785.30;106589;1260;66303;-74
2023/06/21 12:44:02;;;;;;;9.50;8.60;;;;;;;44.33;25.21;99791.67;106933;1254;62519;-76